Time;durP1;ratioP1;P1;durP2;ratioP2;P2;SDS_P1;SDS_P2;PMS_P1;PMS_P2;Temp;Humidity;BMP_temperature;BMP_pressure;BME280_temperature;BME280_humidity;BME280_pressure;Samples;Min_cycle;Max_cycle;Signal;HPM_P1;HPM_P2
2021/05/28 00:02:24;;;;;;;;;;;;;;;22.09;60.51;99299.13;5094397;28;19916;-53
2021/05/28 00:04:49;;;;;;;;;;;;;;;22.15;60.35;99297.97;5094182;28;19918;-53
2021/05/28 00:07:14;;;;;;;;;;;;;;;22.15;60.54;99299.88;5094105;28;19912;-53
2021/05/28 00:09:40;;;;;;;;;;;;;;;22.15;60.16;99297.97;5094271;28;20140;-53
2021/05/28 00:12:06;;;;;;;;;;;;;;;22.23;60.19;99305.44;5093838;28;19916;-53
2021/05/28 00:14:31;;;;;;;;;;;;;;;22.24;59.99;99296.22;5093504;28;20209;-52
2021/05/28 00:16:56;;;;;;;;;;;;;;;22.28;60.12;99290.25;5093751;28;19981;-53
2021/05/28 00:19:21;;;;;;;;;;;;;;;22.31;59.90;99300.50;5093419;28;20277;-52
2021/05/28 00:21:47;;;;;;;;;;;;;;;22.19;60.32;99290.06;5093721;28;20389;-54
2021/05/28 00:24:12;;;;;;;;;;;;;;;22.08;60.73;99294.78;5113394;28;19915;-52
2021/05/28 00:26:37;;;;;;;;;;;;;;;21.96;61.03;99294.41;5114229;28;20297;-52
2021/05/28 00:29:03;;;;;;;;;;;;;;;21.97;60.69;99294.13;5114241;28;19912;-52
2021/05/28 00:31:28;;;;;;;;;;;;;;;21.99;60.55;99296.53;5114226;28;19927;-52
2021/05/28 00:33:53;;;;;;;;;;;;;;;22.03;60.34;99298.38;5114204;28;19918;-51
2021/05/28 00:36:19;;;;;;;;;;;;;;;22.01;60.67;99288.94;5114072;28;19961;-53
2021/05/28 00:38:44;;;;;;;;;;;;;;;22.02;60.56;99291.34;5113923;28;19985;-52
2021/05/28 00:41:10;;;;;;;;;;;;;;;22.05;60.23;99284.56;5114175;28;20339;-52
2021/05/28 00:43:35;;;;;;;;;;;;;;;22.02;60.31;99291.34;5114208;28;19962;-52
2021/05/28 00:46:01;;;;;;;;;;;;;;;22.05;60.12;99296.19;5114110;28;19918;-53
2021/05/28 00:48:26;;;;;;;;;;;;;;;22.02;60.17;99290.53;5113921;28;19916;-51
2021/05/28 00:50:51;;;;;;;;;;;;;;;22.05;59.77;99292.69;5114150;28;19919;-53
2021/05/28 00:53:17;;;;;;;;;;;;;;;22.04;59.73;99289.16;5114590;28;19915;-54
2021/05/28 00:55:42;;;;;;;;;;;;;;;22.10;59.45;99289.09;5114173;28;19908;-53
2021/05/28 00:58:08;;;;;;;;;;;;;;;22.00;59.77;99285.41;5114522;28;19919;-53
2021/05/28 01:00:33;;;;;;;;;;;;;;;21.79;60.50;99276.72;5114106;28;19934;-52
2021/05/28 01:02:59;;;;;;;;;;;;;;;21.92;60.38;99280.66;5114126;28;19915;-52
2021/05/28 01:05:24;;;;;;;;;;;;;;;21.80;60.62;99281.06;5114467;28;20010;-53
2021/05/28 01:07:49;;;;;;;;;;;;;;;21.86;60.62;99281.81;5114285;28;19912;-52
2021/05/28 01:10:15;;;;;;;;;;;;;;;21.68;60.85;99272.53;5112992;28;19918;-52
2021/05/28 01:12:41;;;;;;;;;;;;;;;21.72;60.70;99261.94;5113984;28;20068;-51
2021/05/28 01:15:06;;;;;;;;;;;;;;;21.66;60.82;99261.97;5112785;28;19931;-52
2021/05/28 01:17:32;;;;;;;;;;;;;;;21.70;60.81;99259.50;5113917;28;20332;-52
2021/05/28 01:19:57;;;;;;;;;;;;;;;21.63;60.77;99256.34;5093931;28;19962;-53
2021/05/28 01:22:22;;;;;;;;;;;;;;;21.63;60.72;99257.16;5097476;28;19955;-52
2021/05/28 01:24:48;;;;;;;;;;;;;;;21.59;60.87;99250.72;5113811;28;19995;-52
2021/05/28 01:27:13;;;;;;;;;;;;;;;21.47;61.21;99250.28;5113716;28;19922;-53
2021/05/28 01:29:38;;;;;;;;;;;;;;;21.36;61.72;99249.59;5113789;28;19918;-52
2021/05/28 01:32:03;;;;;;;;;;;;;;;21.39;61.93;99248.19;5113643;28;19958;-53
2021/05/28 01:34:29;;;;;;;;;;;;;;;21.32;61.43;99251.22;5113638;28;19938;-52
2021/05/28 01:36:54;;;;;;;;;;;;;;;21.51;61.19;99251.31;5113492;28;19912;-48
2021/05/28 01:39:19;;;;;;;;;;;;;;;21.41;61.39;99246.00;5113924;28;19915;-55
2021/05/28 01:41:45;;;;;;;;;;;;;;;21.46;60.59;99252.19;5113697;28;19967;-54
2021/05/28 01:44:10;;;;;;;;;;;;;;;21.42;60.97;99251.13;5113633;28;19915;-54
2021/05/28 01:46:36;;;;;;;;;;;;;;;21.39;61.15;99248.19;5112031;28;20329;-54
2021/05/28 01:49:02;;;;;;;;;;;;;;;21.39;61.09;99253.59;5113067;28;19950;-53
2021/05/28 01:51:28;;;;;;;;;;;;;;;21.52;60.35;99252.16;5113291;28;20371;-52
2021/05/28 01:53:53;;;;;;;;;;;;;;;21.50;60.61;99254.34;5113130;28;19923;-52
2021/05/28 01:56:18;;;;;;;;;;;;;;;21.40;60.90;99255.19;5113047;28;20079;-52
2021/05/28 01:58:44;;;;;;;;;;;;;;;21.45;60.71;99258.69;5112839;28;19918;-49
2021/05/28 02:01:09;;;;;;;;;;;;;;;21.53;60.05;99261.88;5111505;28;19916;-51
2021/05/28 02:03:34;;;;;;;;;;;;;;;21.51;59.99;99264.84;5112876;28;19916;-52
2021/05/28 02:05:59;;;;;;;;;;;;;;;21.53;59.97;99259.97;5113322;28;19912;-53
2021/05/28 02:08:25;;;;;;;;;;;;;;;21.62;59.44;99254.75;5113074;28;20003;-52
2021/05/28 02:10:50;;;;;;;;;;;;;;;21.67;59.22;99257.41;5112875;28;19961;-52
2021/05/28 02:13:15;;;;;;;;;;;;;;;21.62;59.48;99252.03;5112837;28;20030;-51
2021/05/28 02:15:41;;;;;;;;;;;;;;;21.62;59.27;99249.31;5112674;28;19924;-51
2021/05/28 02:18:06;;;;;;;;;;;;;;;21.45;60.04;99253.28;5108043;28;19912;-53
2021/05/28 02:20:31;;;;;;;;;;;;;;;21.50;59.68;99244.31;5092308;28;20265;-53
2021/05/28 02:22:57;;;;;;;;;;;;;;;21.27;60.47;99248.59;5101241;28;20374;-52
2021/05/28 02:25:22;;;;;;;;;;;;;;;21.46;59.98;99244.09;5112467;28;20275;-52
2021/05/28 02:27:47;;;;;;;;;;;;;;;21.58;59.19;99240.97;5112385;28;20364;-53
2021/05/28 02:30:13;;;;;;;;;;;;;;;21.57;59.31;99246.66;5112906;28;19912;-52
2021/05/28 02:32:38;;;;;;;;;;;;;;;21.58;59.48;99243.69;5112873;28;19919;-53
2021/05/28 02:35:04;;;;;;;;;;;;;;;21.43;59.61;99258.16;5112413;28;20388;-53
2021/05/28 02:37:29;;;;;;;;;;;;;;;21.49;59.56;99248.09;5112428;28;20348;-53
2021/05/28 02:39:55;;;;;;;;;;;;;;;21.43;59.00;99247.31;5112528;28;20295;-51
2021/05/28 02:42:20;;;;;;;;;;;;;;;21.38;59.17;99254.69;5110212;28;19912;-53
2021/05/28 02:44:45;;;;;;;;;;;;;;;21.08;59.39;99248.50;5112447;28;20356;-54
2021/05/28 02:47:10;;;;;;;;;;;;;;;21.11;59.35;99255.22;5112365;28;19945;-52
2021/05/28 02:49:36;;;;;;;;;;;;;;;20.97;59.62;99249.69;5112094;28;20363;-52
2021/05/28 02:52:04;;;;;;;;;;;;;;;20.42;60.62;99247.09;5112420;28;19958;-51
2021/05/28 02:54:29;;;;;;;;;;;;;;;20.30;60.92;99255.56;5111986;28;19920;-52
2021/05/28 02:56:55;;;;;;;;;;;;;;;20.67;60.06;99244.22;5112333;28;20433;-52
2021/05/28 02:59:20;;;;;;;;;;;;;;;20.86;59.52;99246.25;5112389;28;19934;-52
2021/05/28 03:01:45;;;;;;;;;;;;;;;20.84;59.78;99241.13;5112067;28;20312;-53
2021/05/28 03:04:11;;;;;;;;;;;;;;;21.01;59.33;99243.41;5112018;28;19984;-52
2021/05/28 03:06:36;;;;;;;;;;;;;;;20.71;60.71;99244.47;5112194;28;19919;-52
2021/05/28 03:09:01;;;;;;;;;;;;;;;20.89;60.08;99240.28;5112009;28;19912;-52
2021/05/28 03:11:27;;;;;;;;;;;;;;;21.09;59.82;99237.41;5110733;28;19923;-52
2021/05/28 03:13:52;;;;;;;;;;;;;;;21.27;59.19;99233.16;5111952;28;19926;-52
2021/05/28 03:16:17;;;;;;;;;;;;;;;21.24;59.08;99230.22;5111692;28;19919;-53
2021/05/28 03:19:21;;;;;;;;;;;;;;;21.36;59.09;99227.09;5102032;28;19936;-53
2021/05/28 03:24:00;;;;;;;;;;;;;;;21.48;58.44;99225.66;5109401;28;20014;-53
2021/05/28 03:26:25;;;;;;;;;;;;;;;21.34;59.28;99238.22;5111632;28;19935;-53
2021/05/28 03:28:51;;;;;;;;;;;;;;;21.47;59.15;99247.59;5111863;28;19912;-53
2021/05/28 03:31:16;;;;;;;;;;;;;;;21.51;58.73;99237.78;5111862;28;20276;-54
2021/05/28 03:33:42;;;;;;;;;;;;;;;21.58;58.72;99240.97;5111542;28;20325;-54
2021/05/28 03:36:07;;;;;;;;;;;;;;;21.16;60.03;99247.06;5111791;28;19916;-52
2021/05/28 03:38:32;;;;;;;;;;;;;;;21.22;59.94;99245.94;5112068;28;19912;-52
2021/05/28 03:40:58;;;;;;;;;;;;;;;21.08;60.39;99260.13;5111955;28;19943;-53
2021/05/28 03:43:23;;;;;;;;;;;;;;;21.00;60.58;99262.63;5111273;28;19984;-53
2021/05/28 03:45:48;;;;;;;;;;;;;;;20.53;61.64;99264.06;5111216;28;19951;-54
2021/05/28 03:48:14;;;;;;;;;;;;;;;20.56;62.01;99263.47;5111321;28;20396;-53
2021/05/28 03:50:39;;;;;;;;;;;;;;;20.28;62.85;99265.84;5109852;28;19918;-54
2021/05/28 03:53:04;;;;;;;;;;;;;;;20.28;62.85;99255.03;5111273;28;20325;-54
2021/05/28 03:55:29;;;;;;;;;;;;;;;20.36;62.19;99257.13;5109839;28;19972;-54
2021/05/28 03:57:55;;;;;;;;;;;;;;;19.98;63.65;99262.19;5110966;28;19916;-54
2021/05/28 04:00:20;;;;;;;;;;;;;;;20.34;62.63;99258.50;5104354;28;19959;-52
2021/05/28 04:02:45;;;;;;;;;;;;;;;20.14;63.26;99251.31;5091151;28;19920;-53
2021/05/28 04:05:11;;;;;;;;;;;;;;;20.61;61.72;99258.88;5091238;28;19919;-53
2021/05/28 04:07:37;;;;;;;;;;;;;;;20.75;61.55;99258.25;5091184;28;19970;-52
2021/05/28 04:10:02;;;;;;;;;;;;;;;20.94;60.95;99269.97;5090870;28;20391;-53
2021/05/28 04:12:27;;;;;;;;;;;;;;;20.98;62.09;99264.81;5091173;28;19947;-52
2021/05/28 04:14:52;;;;;;;;;;;;;;;20.69;61.61;99265.59;5090781;28;19924;-53
2021/05/28 04:17:18;;;;;;;;;;;;;;;21.03;61.17;99268.28;5090850;28;19912;-53
2021/05/28 04:19:43;;;;;;;;;;;;;;;21.25;60.91;99267.00;5086407;28;19916;-53
2021/05/28 04:22:08;;;;;;;;;;;;;;;21.38;59.83;99262.81;5092804;28;19943;-53
2021/05/28 04:24:34;;;;;;;;;;;;;;;21.06;60.28;99258.81;5098227;28;20015;-52
2021/05/28 04:26:59;;;;;;;;;;;;;;;21.05;61.29;99263.38;5093549;28;19918;-51
2021/05/28 04:29:24;;;;;;;;;;;;;;;20.91;60.54;99257.03;5088556;28;20003;-53
2021/05/28 04:31:50;;;;;;;;;;;;;;;21.27;59.98;99264.81;5073712;28;20343;-51
2021/05/28 04:34:15;;;;;;;;;;;;;;;21.02;61.44;99257.75;5076154;28;19920;-52
2021/05/28 04:36:40;;;;;;;;;;;;;;;21.54;59.33;99263.50;5079116;28;19916;-52
2021/05/28 04:39:06;;;;;;;;;;;;;;;21.68;59.17;99264.41;5091539;28;19916;-51
2021/05/28 04:41:31;;;;;;;;;;;;;;;21.50;59.14;99268.69;5093057;28;20064;-51
2021/05/28 04:43:56;;;;;;;;;;;;;;;21.62;59.75;99274.47;5092396;28;19977;-53
2021/05/28 04:46:22;;;;;;;;;;;;;;;22.06;57.87;99272.59;5092560;28;19974;-53
2021/05/28 04:48:47;;;;;;;;;;;;;;;22.25;57.54;99265.31;5092417;28;19928;-52
2021/05/28 04:51:12;;;;;;;;;;;;;;;22.46;57.72;99265.03;5092924;28;19938;-50
2021/05/28 04:53:37;;;;;;;;;;;;;;;22.54;56.28;99263.56;5093106;28;19916;-51
2021/05/28 04:56:03;;;;;;;;;;;;;;;23.00;55.34;99260.16;5091997;28;20288;-53
2021/05/28 04:58:28;;;;;;;;;;;;;;;22.93;54.67;99248.88;5092101;28;19912;-53
2021/05/28 05:00:54;;;;;;;;;;;;;;;22.98;55.50;99254.19;5092984;28;19912;-50
2021/05/28 05:03:20;;;;;;;;;;;;;;;23.15;54.82;99254.47;5092751;28;19923;-50
2021/05/28 05:05:45;;;;;;;;;;;;;;;23.17;55.27;99254.16;5091558;28;19912;-52
2021/05/28 05:08:10;;;;;;;;;;;;;;;23.46;54.36;99255.81;5097929;28;19963;-51
2021/05/28 05:10:36;;;;;;;;;;;;;;;23.51;54.25;99256.50;5103664;28;19912;-53
2021/05/28 05:13:04;;;;;;;;;;;;;;;23.52;53.68;99249.19;5101161;28;19951;-52
2021/05/28 05:15:29;;;;;;;;;;;;;;;23.78;52.83;99244.88;5101484;28;20592;-50
2021/05/28 05:17:56;;;;;;;;;;;;;;;23.81;53.82;99254.31;5102169;28;20149;-51
2021/05/28 05:20:21;;;;;;;;;;;;;;;23.93;53.09;99245.66;5092425;28;19915;-52
2021/05/28 05:22:47;;;;;;;;;;;;;;;23.54;53.74;99263.25;5100371;28;19919;-52
2021/05/28 05:25:12;;;;;;;;;;;;;;;23.68;53.87;99261.34;5113004;28;20011;-53
2021/05/28 05:27:37;;;;;;;;;;;;;;;23.78;53.84;99263.06;5112635;28;19923;-52
2021/05/28 05:30:03;;;;;;;;;;;;;;;24.08;52.15;99267.06;5112664;28;20508;-52
2021/05/28 05:32:28;;;;;;;;;;;;;;;23.74;52.66;99268.31;5104755;28;19912;-53
2021/05/28 05:34:57;;;;;;;;;;;;;;;23.65;52.78;99266.59;5092761;28;21241;-53
2021/05/28 05:37:22;;;;;;;;;;;;;;;23.51;53.01;99270.09;5093508;28;20026;-51
2021/05/28 05:39:48;;;;;;;;;;;;;;;23.90;52.46;99271.53;5108459;28;19998;-50
2021/05/28 05:42:13;;;;;;;;;;;;;;;24.09;51.61;99262.47;5098109;28;19912;-53
2021/05/28 05:44:38;;;;;;;;;;;;;;;24.24;50.99;99251.25;5102813;28;20007;-52
2021/05/28 05:47:03;;;;;;;;;;;;;;;24.23;50.88;99263.22;5105249;28;20286;-50
2021/05/28 05:49:29;;;;;;;;;;;;;;;24.14;51.21;99257.72;5093912;28;19923;-52
2021/05/28 05:51:54;;;;;;;;;;;;;;;24.14;51.25;99256.88;5108530;28;19912;-50
2021/05/28 05:54:19;;;;;;;;;;;;;;;24.45;50.06;99256.22;5098543;28;19912;-52
2021/05/28 05:56:45;;;;;;;;;;;;;;;23.93;51.21;99256.53;5101269;28;20046;-52
2021/05/28 05:59:10;;;;;;;;;;;;;;;24.26;50.65;99251.75;5105537;28;19974;-53
2021/05/28 06:01:36;;;;;;;;;;;;;;;24.19;50.75;99254.88;5093798;28;20352;-52
2021/05/28 06:04:01;;;;;;;;;;;;;;;24.52;50.23;99264.78;5107236;27;20083;-52
2021/05/28 06:06:26;;;;;;;;;;;;;;;24.64;49.71;99266.97;5099064;28;19998;-52
2021/05/28 06:08:53;;;;;;;;;;;;;;;24.40;50.33;99265.28;5100070;28;19935;-52
2021/05/28 06:11:18;;;;;;;;;;;;;;;24.37;50.16;99268.63;5106307;28;19915;-50
2021/05/28 06:13:43;;;;;;;;;;;;;;;23.84;51.07;99271.91;5095195;28;19924;-52
2021/05/28 06:16:09;;;;;;;;;;;;;;;24.05;50.66;99281.28;5104957;28;19920;-52
2021/05/28 06:18:35;;;;;;;;;;;;;;;24.55;49.73;99278.56;5100075;28;19916;-52
2021/05/28 06:21:00;;;;;;;;;;;;;;;24.78;49.21;99281.28;5098496;28;19951;-51
2021/05/28 06:23:25;;;;;;;;;;;;;;;24.85;49.75;99284.41;5093715;28;19963;-52
2021/05/28 06:25:51;;;;;;;;;;;;;;;24.77;49.58;99283.22;5107164;28;19915;-51
2021/05/28 06:28:16;;;;;;;;;;;;;;;24.45;49.70;99280.69;5096053;28;19911;-52
2021/05/28 06:30:41;;;;;;;;;;;;;;;23.93;50.77;99280.97;5100409;28;19951;-55
2021/05/28 06:33:07;;;;;;;;;;;;;;;24.34;50.05;99285.56;5104190;28;19947;-53
2021/05/28 06:35:33;;;;;;;;;;;;;;;24.47;49.82;99289.34;5094877;28;19959;-53
2021/05/28 06:37:58;;;;;;;;;;;;;;;24.07;50.67;99287.22;5090278;28;19967;-52
2021/05/28 06:40:24;;;;;;;;;;;;;;;24.13;51.76;99288.72;5091361;28;19920;-38
2021/05/28 06:42:49;;;;;;;;;;;;;;;24.25;50.15;99292.81;5076605;28;20394;-38
2021/05/28 06:45:17;;;;;;;;;;;;;;;24.34;49.71;99294.50;5090747;28;19912;-39
2021/05/28 06:47:42;;;;;;;;;;;;;;;24.40;50.46;99298.72;5107641;28;19998;-38
2021/05/28 06:50:08;;;;;;;;;;;;;;;24.48;50.24;99289.03;5091720;28;20387;-39
2021/05/28 06:52:33;;;;;;;;;;;;;;;24.67;50.17;99290.81;5099943;28;19960;-39
2021/05/28 06:54:58;;;;;;;;;;;;;;;24.62;50.30;99291.75;5098457;28;20006;-39
2021/05/28 06:57:25;;;;;;;;;;;;;;;24.28;50.80;99298.44;5090323;28;19919;-39
2021/05/28 06:59:50;;;;;;;;;;;;;;;23.38;53.49;99293.41;5107064;28;19935;-39
2021/05/28 07:02:15;;;;;;;;;;;;;;;23.08;54.21;99293.97;5096887;28;20380;-38
2021/05/28 07:04:40;;;;;;;;;;;;;;;23.41;53.84;99297.44;5111008;28;19924;-38
2021/05/28 07:07:06;;;;;;;;;;;;;;;23.65;53.25;99308.13;5096923;28;19912;-38
2021/05/28 07:09:31;;;;;;;;;;;;;;;23.50;54.52;99306.50;5106166;28;19912;-39
2021/05/28 07:11:57;;;;;;;;;;;;;;;23.74;54.24;99306.31;5111263;28;20418;-39
2021/05/28 07:14:22;;;;;;;;;;;;;;;23.57;54.78;99309.63;5111363;28;19924;-39
2021/05/28 07:16:47;;;;;;;;;;;;;;;23.74;54.64;99313.66;5111906;28;19922;-39
2021/05/28 07:19:12;;;;;;;;;;;;;;;24.17;53.60;99307.94;5111235;28;19904;-39
2021/05/28 07:21:38;;;;;;;;;;;;;;;24.27;53.44;99309.63;5111104;28;20303;-37
2021/05/28 07:24:03;;;;;;;;;;;;;;;24.20;53.46;99310.84;5092140;28;20375;-40
2021/05/28 07:26:29;;;;;;;;;;;;;;;24.13;53.03;99312.38;5090239;28;19912;-40
2021/05/28 07:28:54;;;;;;;;;;;;;;;24.16;53.32;99309.03;5083477;28;20057;-39
2021/05/28 07:31:19;;;;;;;;;;;;;;;24.56;52.40;99310.09;5090599;28;19931;-39
2021/05/28 07:33:44;;;;;;;;;;;;;;;24.49;52.93;99301.53;5123054;28;19919;-39
2021/05/28 07:36:10;;;;;;;;;;;;;;;25.01;51.21;99297.63;5091207;28;19912;-39
2021/05/28 07:38:35;;;;;;;;;;;;;;;25.00;50.88;99296.00;5090880;28;19912;-39
2021/05/28 07:41:01;;;;;;;;;;;;;;;25.01;51.02;99292.19;5091050;28;20002;-40
2021/05/28 07:43:26;;;;;;;;;;;;;;;25.18;50.71;99297.72;5091105;28;20277;-39
2021/05/28 07:45:51;;;;;;;;;;;;;;;24.78;51.26;99278.56;5090747;28;20299;-39
2021/05/28 07:48:20;;;;;;;;;;;;;;;25.15;50.09;99295.63;5091257;28;20007;-39
2021/05/28 07:50:45;;;;;;;;;;;;;;;25.14;50.07;99294.03;5090993;28;19919;-38
2021/05/28 07:53:18;;;;;;;;;;;;;;;25.22;50.00;99287.03;5089653;28;19912;-39
2021/05/28 07:55:44;;;;;;;;;;;;;;;25.40;49.35;99285.22;5090396;28;19961;-39
2021/05/28 07:58:09;;;;;;;;;;;;;;;25.32;48.36;99270.44;5092124;28;19916;-39
2021/05/28 08:00:34;;;;;;;;;;;;;;;25.55;48.23;99291.06;5092781;28;19912;-40
2021/05/28 08:03:00;;;;;;;;;;;;;;;25.80;48.05;99296.09;5094332;28;20344;-39
2021/05/28 08:05:25;;;;;;;;;;;;;;;25.75;49.02;99297.84;5094105;28;19944;-39
2021/05/28 08:07:50;;;;;;;;;;;;;;;25.90;49.17;99304.00;5092844;28;19912;-38
2021/05/28 08:10:16;;;;;;;;;;;;;;;25.64;48.99;99299.25;5092294;28;20178;-39
2021/05/28 08:12:41;;;;;;;;;;;;;;;26.02;48.46;99300.69;5092735;28;19916;-38
2021/05/28 08:15:07;;;;;;;;;;;;;;;26.28;48.47;99306.22;5091860;28;19924;-38
2021/05/28 08:17:32;;;;;;;;;;;;;;;26.07;48.60;99295.91;5091997;28;19912;-39
2021/05/28 08:19:57;;;;;;;;;;;;;;;26.01;48.96;99299.06;5092281;28;19916;-40
2021/05/28 08:22:23;;;;;;;;;;;;;;;25.52;49.81;99301.78;5098013;28;19919;-40
2021/05/28 08:24:48;;;;;;;;;;;;;;;25.44;49.34;99305.28;5114402;28;20385;-39
2021/05/28 08:27:13;;;;;;;;;;;;;;;24.89;51.82;99299.00;5114259;28;19933;-39
2021/05/28 08:29:38;;;;;;;;;;;;;;;24.99;51.67;99295.22;5114395;28;19912;-39
2021/05/28 08:32:04;;;;;;;;;;;;;;;24.69;51.70;99300.25;5114790;28;19962;-38
2021/05/28 08:34:29;;;;;;;;;;;;;;;25.14;50.83;99292.09;5114054;28;20488;-39
2021/05/28 08:36:55;;;;;;;;;;;;;;;25.50;50.16;99290.41;5113652;28;19963;-39
2021/05/28 08:39:20;;;;;;;;;;;;;;;25.55;49.14;99282.06;5114080;28;20385;-38
2021/05/28 08:41:45;;;;;;;;;;;;;;;25.54;49.98;99275.81;5114223;28;19988;-37
2021/05/28 08:44:11;;;;;;;;;;;;;;;26.10;48.67;99289.00;5112659;28;20418;-40
2021/05/28 08:46:36;;;;;;;;;;;;;;;26.17;48.66;99277.63;5114042;28;19912;-38
2021/05/28 08:49:02;;;;;;;;;;;;;;;26.59;47.52;99276.06;5114027;28;19987;-39
2021/05/28 08:51:27;;;;;;;;;;;;;;;27.17;46.62;99273.09;5114008;28;19912;-39
2021/05/28 08:53:52;;;;;;;;;;;;;;;27.44;45.37;99269.19;5113497;28;19918;-39
2021/05/28 08:56:17;;;;;;;;;;;;;;;27.73;43.87;99268.41;5113542;28;19919;-39
2021/05/28 08:58:43;;;;;;;;;;;;;;;28.14;43.46;99255.97;5113525;28;19911;-39
2021/05/28 09:01:08;;;;;;;;;;;;;;;28.02;42.40;99259.41;5113787;28;20002;-40
2021/05/28 09:03:37;;;;;;;;;;;;;;;28.39;41.14;99248.72;5112182;28;20406;-39
2021/05/28 09:06:18;;;;;;;;;;;;;;;29.24;39.79;99254.84;5112099;28;19955;-39
2021/05/28 09:08:44;;;;;;;;;;;;;;;29.69;38.04;99251.22;5092698;28;20298;-39
2021/05/28 09:11:10;;;;;;;;;;;;;;;29.55;37.52;99246.09;5092656;28;19916;-39
2021/05/28 09:13:56;;;;;;;;;;;;;;;28.89;37.75;99248.94;5092951;28;19916;-39
2021/05/28 09:16:23;;;;;;;;;;;;;;;29.18;38.87;99242.50;5092385;28;19979;-39
2021/05/28 09:18:50;;;;;;;;;;;;;;;29.47;37.78;99241.50;5092757;28;20414;-39
2021/05/28 09:21:30;;;;;;;;;;;;;;;29.77;37.37;99249.53;5092373;28;19912;-40
2021/05/28 09:23:55;;;;;;;;;;;;;;;29.91;36.81;99243.69;5110141;28;20463;-39
2021/05/28 09:26:23;;;;;;;;;;;;;;;30.40;36.62;99247.13;5112767;28;20023;-39
2021/05/28 09:28:49;;;;;;;;;;;;;;;30.89;34.34;99237.88;5112523;28;19916;-40
2021/05/28 09:31:17;;;;;;;;;;;;;;;31.45;33.00;99234.22;5112922;28;19912;-40
2021/05/28 09:33:47;;;;;;;;;;;;;;;31.24;33.38;99230.94;5113058;28;19919;-40
2021/05/28 09:36:13;;;;;;;;;;;;;;;31.34;32.76;99235.94;5112318;28;19912;-41
2021/05/28 09:38:40;;;;;;;;;;;;;;;30.55;32.80;99231.88;5112709;28;19915;-39
2021/05/28 09:41:05;;;;;;;;;;;;;;;30.00;34.31;99233.38;5112485;28;19919;-41
2021/05/28 09:43:31;;;;;;;;;;;;;;;30.01;34.01;99235.78;5112366;28;19964;-38
2021/05/28 09:45:56;;;;;;;;;;;;;;;29.98;34.39;99231.00;5112530;28;19912;-40
2021/05/28 09:48:22;;;;;;;;;;;;;;;29.84;35.11;99225.09;5110851;28;20093;-39
2021/05/28 09:50:52;;;;;;;;;;;;;;;30.42;34.96;99224.84;5111660;28;19912;-39
2021/05/28 09:53:28;;;;;;;;;;;;;;;29.75;35.77;99222.47;5111892;28;19912;-39
2021/05/28 09:55:53;;;;;;;;;;;;;;;29.11;36.36;99223.88;5112001;28;19969;-39
2021/05/28 09:58:19;;;;;;;;;;;;;;;29.00;36.46;99219.97;5111408;28;19911;-39
2021/05/28 10:00:44;;;;;;;;;;;;;;;29.48;35.18;99217.66;5111637;28;19926;-41
2021/05/28 10:03:13;;;;;;;;;;;;;;;30.22;34.03;99215.63;5111735;28;19948;-39
2021/05/28 10:05:38;;;;;;;;;;;;;;;29.96;33.93;99211.34;5112485;28;19911;-39
2021/05/28 10:08:07;;;;;;;;;;;;;;;29.41;34.09;99207.25;5111811;28;19918;-39
2021/05/28 10:10:33;;;;;;;;;;;;;;;29.16;36.08;99199.03;5111866;28;19961;-39
2021/05/28 10:12:59;;;;;;;;;;;;;;;29.78;34.50;99199.84;5110296;28;19916;-40
2021/05/28 10:15:24;;;;;;;;;;;;;;;28.40;37.00;99192.84;5111601;28;20418;-39
2021/05/28 10:17:49;;;;;;;;;;;;;;;28.23;37.48;99202.00;5111619;28;19939;-39
2021/05/28 10:20:14;;;;;;;;;;;;;;;28.94;36.17;99196.66;5109663;28;20240;-40
2021/05/28 10:22:40;;;;;;;;;;;;;;;27.83;38.62;99205.16;5109669;28;19912;-41
2021/05/28 10:25:06;;;;;;;;;;;;;;;28.12;38.02;99208.22;5110317;28;19919;-38
2021/05/28 10:27:32;;;;;;;;;;;;;;;26.82;40.71;99208.47;5111348;28;19912;-40
2021/05/28 10:29:57;;;;;;;;;;;;;;;26.74;41.88;99206.56;5110206;28;19919;-39
2021/05/28 10:32:22;;;;;;;;;;;;;;;25.05;46.39;99187.81;5111300;28;20328;-39
2021/05/28 10:35:09;;;;;;;;;;;;;;;26.03;44.24;99187.81;5111682;28;19912;-40
2021/05/28 10:37:34;;;;;;;;;;;;;;;25.77;44.11;99185.03;5111308;28;19923;-39
2021/05/28 10:40:00;;;;;;;;;;;;;;;24.47;46.97;99164.25;5110065;28;19912;-40
2021/05/28 10:42:26;;;;;;;;;;;;;;;24.34;47.16;99164.00;5110637;28;20414;-40
2021/05/28 10:44:52;;;;;;;;;;;;;;;24.71;46.24;99174.81;5111076;28;19934;-39
2021/05/28 10:47:17;;;;;;;;;;;;;;;25.33;44.95;99180.28;5111512;28;20311;-40
2021/05/28 10:49:43;;;;;;;;;;;;;;;24.86;46.24;99181.78;5111427;28;19951;-40
2021/05/28 10:52:11;;;;;;;;;;;;;;;23.47;52.30;99205.84;5111055;28;20010;-38
2021/05/28 10:54:37;;;;;;;;;;;;;;;23.19;54.39;99232.97;5111331;28;20335;-39
2021/05/28 10:57:26;;;;;;;;;;;;;;;23.70;54.66;99267.28;5110886;28;19919;-41
2021/05/28 10:59:52;;;;;;;;;;;;;;;23.33;56.46;99315.22;5108079;28;19955;-43
2021/05/28 11:02:35;;;;;;;;;;;;;;;22.51;57.81;99338.19;5111320;28;19919;-42
2021/05/28 11:05:01;;;;;;;;;;;;;;;20.94;60.25;99332.19;5111352;28;20368;-43
2021/05/28 11:07:32;;;;;;;;;;;;;;;19.48;66.53;99356.53;5111347;28;20014;-44
2021/05/28 11:09:57;;;;;;;;;;;;;;;18.73;68.99;99392.03;5111928;28;19912;-43
2021/05/28 11:12:26;;;;;;;;;;;;;;;18.61;67.14;99386.06;5110660;28;19923;-41
2021/05/28 11:15:05;;;;;;;;;;;;;;;18.50;67.60;99392.50;5111384;28;19924;-44
2021/05/28 11:17:30;;;;;;;;;;;;;;;18.71;68.00;99398.75;5112011;28;20002;-44
2021/05/28 11:19:57;;;;;;;;;;;;;;;18.84;68.59;99410.94;5111965;28;20037;-45
2021/05/28 11:22:35;;;;;;;;;;;;;;;18.14;69.97;99432.72;5106602;28;19912;-41
2021/05/28 11:25:02;;;;;;;;;;;;;;;17.68;70.46;99449.34;5090997;28;19916;-40
2021/05/28 11:27:27;;;;;;;;;;;;;;;17.59;70.66;99432.06;5091007;28;19969;-41
2021/05/28 11:29:56;;;;;;;;;;;;;;;17.15;69.91;99467.16;5090709;28;19916;-40
2021/05/28 11:32:34;;;;;;;;;;;;;;;17.63;68.62;99472.72;5092459;28;19958;-41
2021/05/28 11:35:09;;;;;;;;;;;;;;;17.84;67.16;99474.53;5093374;28;20315;-40
2021/05/28 11:37:38;;;;;;;;;;;;;;;17.46;69.69;99499.72;5094995;28;19985;-40
2021/05/28 11:40:29;;;;;;;;;;;;;;;17.91;67.85;99499.34;5094438;28;19975;-40
2021/05/28 11:43:13;;;;;;;;;;;;;;;17.68;67.68;99510.44;5092174;28;19916;-45
2021/05/28 11:45:42;;;;;;;;;;;;;;;18.14;67.10;99518.88;5094488;28;19912;-40
2021/05/28 11:48:11;;;;;;;;;;;;;;;18.33;66.37;99512.03;5094213;28;19912;-40
2021/05/28 11:50:42;;;;;;;;;;;;;;;18.47;66.14;99522.34;5094704;28;20039;-40
2021/05/28 11:53:08;;;;;;;;;;;;;;;18.57;66.08;99535.88;5094597;28;19912;-41
2021/05/28 11:55:43;;;;;;;;;;;;;;;18.36;66.90;99530.34;5094339;28;19912;-42
2021/05/28 11:58:08;;;;;;;;;;;;;;;18.44;66.80;99531.75;5094382;28;19919;-42
2021/05/28 12:00:33;;;;;;;;;;;;;;;17.87;67.84;99533.22;5094474;28;19999;-40
2021/05/28 12:02:59;;;;;;;;;;;;;;;17.78;68.61;99523.97;5094254;28;20346;-40
2021/05/28 12:05:24;;;;;;;;;;;;;;;17.84;67.82;99528.38;5094029;28;19923;-41
2021/05/28 12:07:50;;;;;;;;;;;;;;;18.23;66.76;99535.38;5093747;28;19957;-40
2021/05/28 12:10:15;;;;;;;;;;;;;;;18.26;66.74;99537.53;5094058;28;20436;-40
2021/05/28 12:13:00;;;;;;;;;;;;;;;18.53;65.04;99540.16;5093908;28;19916;-40
2021/05/28 12:15:26;;;;;;;;;;;;;;;18.82;63.98;99529.81;5093779;28;19963;-38
2021/05/28 12:17:52;;;;;;;;;;;;;;;19.18;61.76;99527.25;5094079;28;19912;-38
2021/05/28 12:20:17;;;;;;;;;;;;;;;19.39;62.03;99525.41;5093578;28;19912;-38
2021/05/28 12:23:18;;;;;;;;;;;;;;;19.39;62.35;99521.91;5093581;28;20324;-40
2021/05/28 12:25:43;;;;;;;;;;;;;;;19.62;62.44;99518.69;5071219;28;19965;-41
2021/05/28 12:28:09;;;;;;;;;;;;;;;19.64;61.19;99513.03;5088772;28;20002;-40
2021/05/28 12:30:34;;;;;;;;;;;;;;;19.34;61.48;99518.13;5093694;28;20012;-40
2021/05/28 12:33:00;;;;;;;;;;;;;;;18.96;63.06;99508.56;5093525;28;19913;-41
2021/05/28 12:35:25;;;;;;;;;;;;;;;19.53;62.03;99507.63;5093615;28;19973;-39
2021/05/28 12:38:03;;;;;;;;;;;;;;;19.69;60.25;99507.66;5093434;28;20087;-39
2021/05/28 12:40:28;;;;;;;;;;;;;;;19.86;59.47;99504.72;5093270;28;20379;-39
2021/05/28 12:42:54;;;;;;;;;;;;;;;19.67;60.30;99510.63;5093027;28;19923;-39
2021/05/28 12:45:20;;;;;;;;;;;;;;;19.93;59.20;99516.03;5092770;28;19935;-39
2021/05/28 12:47:45;;;;;;;;;;;;;;;20.06;59.58;99514.69;5093188;28;19989;-39